sensor_id;sensor_type;location;lat;lon;timestamp;P1;durP1;ratioP1;P2;durP2;ratioP2
6133;SDS011;3098;42.678;23.364;2022-07-29T00:01:29;13.35;;;10.18;;
6133;SDS011;3098;42.678;23.364;2022-07-29T00:03:56;13.80;;;10.07;;
6133;SDS011;3098;42.678;23.364;2022-07-29T00:06:25;16.23;;;10.63;;
6133;SDS011;3098;42.678;23.364;2022-07-29T00:08:52;14.65;;;9.75;;
6133;SDS011;3098;42.678;23.364;2022-07-29T00:11:20;15.45;;;10.35;;
6133;SDS011;3098;42.678;23.364;2022-07-29T00:13:47;17.65;;;10.57;;
6133;SDS011;3098;42.678;23.364;2022-07-29T00:16:14;13.90;;;10.50;;
6133;SDS011;3098;42.678;23.364;2022-07-29T00:18:42;13.00;;;10.30;;
6133;SDS011;3098;42.678;23.364;2022-07-29T00:21:09;13.00;;;9.63;;
6133;SDS011;3098;42.678;23.364;2022-07-29T00:23:37;15.15;;;9.95;;
6133;SDS011;3098;42.678;23.364;2022-07-29T00:26:04;13.43;;;10.02;;
6133;SDS011;3098;42.678;23.364;2022-07-29T00:28:31;13.43;;;9.65;;
6133;SDS011;3098;42.678;23.364;2022-07-29T00:30:59;14.40;;;10.30;;
6133;SDS011;3098;42.678;23.364;2022-07-29T00:33:26;16.08;;;9.52;;
6133;SDS011;3098;42.678;23.364;2022-07-29T00:35:53;16.50;;;11.90;;
6133;SDS011;3098;42.678;23.364;2022-07-29T00:38:19;12.23;;;9.02;;
6133;SDS011;3098;42.678;23.364;2022-07-29T00:40:48;16.08;;;9.55;;
6133;SDS011;3098;42.678;23.364;2022-07-29T00:43:18;12.75;;;9.80;;
6133;SDS011;3098;42.678;23.364;2022-07-29T00:45:46;13.77;;;9.73;;
6133;SDS011;3098;42.678;23.364;2022-07-29T00:48:14;14.80;;;9.98;;
6133;SDS011;3098;42.678;23.364;2022-07-29T00:50:43;15.93;;;9.73;;
6133;SDS011;3098;42.678;23.364;2022-07-29T00:53:11;16.75;;;10.55;;
6133;SDS011;3098;42.678;23.364;2022-07-29T00:55:41;16.33;;;10.07;;
6133;SDS011;3098;42.678;23.364;2022-07-29T00:58:13;13.45;;;10.40;;
6133;SDS011;3098;42.678;23.364;2022-07-29T01:00:42;13.48;;;9.52;;
6133;SDS011;3098;42.678;23.364;2022-07-29T01:03:09;12.80;;;10.13;;
6133;SDS011;3098;42.678;23.364;2022-07-29T01:05:37;14.55;;;10.90;;
6133;SDS011;3098;42.678;23.364;2022-07-29T01:08:07;15.48;;;10.18;;
6133;SDS011;3098;42.678;23.364;2022-07-29T01:10:34;19.35;;;11.75;;
6133;SDS011;3098;42.678;23.364;2022-07-29T01:13:04;16.25;;;11.38;;
6133;SDS011;3098;42.678;23.364;2022-07-29T01:15:33;17.75;;;11.32;;
6133;SDS011;3098;42.678;23.364;2022-07-29T01:18:10;22.90;;;12.90;;
6133;SDS011;3098;42.678;23.364;2022-07-29T01:20:48;18.55;;;13.68;;
6133;SDS011;3098;42.678;23.364;2022-07-29T01:23:38;20.50;;;13.57;;
6133;SDS011;3098;42.678;23.364;2022-07-29T01:29:14;22.13;;;15.05;;
6133;SDS011;3098;42.678;23.364;2022-07-29T01:31:48;22.67;;;14.82;;
6133;SDS011;3098;42.678;23.364;2022-07-29T01:34:21;26.75;;;16.27;;
6133;SDS011;3098;42.678;23.364;2022-07-29T01:36:52;24.17;;;15.27;;
6133;SDS011;3098;42.678;23.364;2022-07-29T01:39:30;25.20;;;17.60;;
6133;SDS011;3098;42.678;23.364;2022-07-29T01:41:59;22.20;;;14.88;;
6133;SDS011;3098;42.678;23.364;2022-07-29T01:44:35;23.55;;;15.57;;
6133;SDS011;3098;42.678;23.364;2022-07-29T01:47:10;22.25;;;15.95;;
6133;SDS011;3098;42.678;23.364;2022-07-29T01:49:41;27.92;;;16.42;;
6133;SDS011;3098;42.678;23.364;2022-07-29T01:52:16;23.40;;;14.77;;
6133;SDS011;3098;42.678;23.364;2022-07-29T01:54:49;29.08;;;14.88;;
6133;SDS011;3098;42.678;23.364;2022-07-29T01:57:23;24.83;;;16.30;;
6133;SDS011;3098;42.678;23.364;2022-07-29T01:59:54;22.58;;;15.05;;
6133;SDS011;3098;42.678;23.364;2022-07-29T02:02:23;23.95;;;14.38;;
6133;SDS011;3098;42.678;23.364;2022-07-29T02:04:53;24.23;;;14.35;;
6133;SDS011;3098;42.678;23.364;2022-07-29T02:07:23;22.42;;;15.25;;
6133;SDS011;3098;42.678;23.364;2022-07-29T02:09:53;23.70;;;15.02;;
6133;SDS011;3098;42.678;23.364;2022-07-29T02:12:23;21.23;;;14.68;;
6133;SDS011;3098;42.678;23.364;2022-07-29T02:14:53;25.27;;;16.45;;
6133;SDS011;3098;42.678;23.364;2022-07-29T02:17:27;24.75;;;15.52;;
6133;SDS011;3098;42.678;23.364;2022-07-29T02:20:00;24.77;;;16.33;;
6133;SDS011;3098;42.678;23.364;2022-07-29T02:22:29;19.23;;;14.65;;
6133;SDS011;3098;42.678;23.364;2022-07-29T02:25:00;23.45;;;15.85;;
6133;SDS011;3098;42.678;23.364;2022-07-29T02:27:27;23.30;;;15.93;;
6133;SDS011;3098;42.678;23.364;2022-07-29T02:29:57;23.65;;;15.27;;
6133;SDS011;3098;42.678;23.364;2022-07-29T02:32:27;23.70;;;15.25;;
6133;SDS011;3098;42.678;23.364;2022-07-29T02:34:55;22.55;;;14.15;;
6133;SDS011;3098;42.678;23.364;2022-07-29T02:37:25;20.17;;;13.32;;
6133;SDS011;3098;42.678;23.364;2022-07-29T02:39:54;17.40;;;12.77;;
6133;SDS011;3098;42.678;23.364;2022-07-29T02:42:23;20.08;;;12.18;;
6133;SDS011;3098;42.678;23.364;2022-07-29T02:44:53;26.50;;;14.02;;
6133;SDS011;3098;42.678;23.364;2022-07-29T02:47:22;17.98;;;11.98;;
6133;SDS011;3098;42.678;23.364;2022-07-29T02:49:55;20.10;;;12.32;;
6133;SDS011;3098;42.678;23.364;2022-07-29T02:52:26;15.90;;;9.57;;
6133;SDS011;3098;42.678;23.364;2022-07-29T02:55:00;12.48;;;9.25;;
6133;SDS011;3098;42.678;23.364;2022-07-29T02:57:34;19.13;;;10.80;;
6133;SDS011;3098;42.678;23.364;2022-07-29T03:00:08;15.18;;;11.50;;
6133;SDS011;3098;42.678;23.364;2022-07-29T03:02:38;18.33;;;11.25;;
6133;SDS011;3098;42.678;23.364;2022-07-29T03:05:10;17.90;;;11.13;;
6133;SDS011;3098;42.678;23.364;2022-07-29T03:07:43;17.38;;;11.73;;
6133;SDS011;3098;42.678;23.364;2022-07-29T03:10:13;18.58;;;11.50;;
6133;SDS011;3098;42.678;23.364;2022-07-29T03:12:41;19.05;;;12.32;;
6133;SDS011;3098;42.678;23.364;2022-07-29T03:15:09;19.65;;;12.88;;
6133;SDS011;3098;42.678;23.364;2022-07-29T03:17:39;20.10;;;13.70;;
6133;SDS011;3098;42.678;23.364;2022-07-29T03:20:06;22.65;;;13.98;;
6133;SDS011;3098;42.678;23.364;2022-07-29T03:22:38;21.67;;;13.60;;
6133;SDS011;3098;42.678;23.364;2022-07-29T03:25:08;23.08;;;14.25;;
6133;SDS011;3098;42.678;23.364;2022-07-29T03:27:36;19.27;;;13.70;;
6133;SDS011;3098;42.678;23.364;2022-07-29T03:30:03;20.40;;;15.18;;
6133;SDS011;3098;42.678;23.364;2022-07-29T03:32:31;26.50;;;15.60;;
6133;SDS011;3098;42.678;23.364;2022-07-29T03:35:00;23.52;;;15.20;;
6133;SDS011;3098;42.678;23.364;2022-07-29T03:37:27;16.92;;;13.73;;
6133;SDS011;3098;42.678;23.364;2022-07-29T03:39:56;23.40;;;15.18;;
6133;SDS011;3098;42.678;23.364;2022-07-29T03:42:25;26.73;;;15.10;;
6133;SDS011;3098;42.678;23.364;2022-07-29T03:44:56;26.27;;;15.98;;
6133;SDS011;3098;42.678;23.364;2022-07-29T03:47:25;24.92;;;14.43;;
6133;SDS011;3098;42.678;23.364;2022-07-29T03:49:56;19.38;;;13.63;;
6133;SDS011;3098;42.678;23.364;2022-07-29T03:52:31;19.80;;;14.07;;
6133;SDS011;3098;42.678;23.364;2022-07-29T03:54:58;22.20;;;13.80;;
6133;SDS011;3098;42.678;23.364;2022-07-29T03:57:27;20.67;;;13.90;;
6133;SDS011;3098;42.678;23.364;2022-07-29T03:59:54;22.58;;;14.65;;
6133;SDS011;3098;42.678;23.364;2022-07-29T04:02:22;23.80;;;14.82;;
6133;SDS011;3098;42.678;23.364;2022-07-29T04:04:50;25.83;;;16.42;;
6133;SDS011;3098;42.678;23.364;2022-07-29T04:07:20;21.75;;;14.95;;
6133;SDS011;3098;42.678;23.364;2022-07-29T04:09:47;22.42;;;13.63;;
6133;SDS011;3098;42.678;23.364;2022-07-29T04:12:14;20.13;;;13.63;;
6133;SDS011;3098;42.678;23.364;2022-07-29T04:14:41;17.95;;;12.38;;
6133;SDS011;3098;42.678;23.364;2022-07-29T04:17:08;18.45;;;12.88;;
6133;SDS011;3098;42.678;23.364;2022-07-29T04:19:35;20.17;;;12.73;;
6133;SDS011;3098;42.678;23.364;2022-07-29T04:22:02;21.98;;;11.95;;
6133;SDS011;3098;42.678;23.364;2022-07-29T04:24:31;17.95;;;12.18;;
6133;SDS011;3098;42.678;23.364;2022-07-29T04:26:58;19.13;;;12.68;;
6133;SDS011;3098;42.678;23.364;2022-07-29T04:29:25;18.73;;;11.38;;
6133;SDS011;3098;42.678;23.364;2022-07-29T04:31:52;19.45;;;11.43;;
6133;SDS011;3098;42.678;23.364;2022-07-29T04:34:19;17.70;;;10.43;;
6133;SDS011;3098;42.678;23.364;2022-07-29T04:36:46;13.90;;;9.45;;
6133;SDS011;3098;42.678;23.364;2022-07-29T04:39:13;12.82;;;8.93;;
6133;SDS011;3098;42.678;23.364;2022-07-29T04:41:42;16.02;;;9.80;;
6133;SDS011;3098;42.678;23.364;2022-07-29T04:44:09;21.35;;;10.18;;
6133;SDS011;3098;42.678;23.364;2022-07-29T04:46:36;19.98;;;9.73;;
6133;SDS011;3098;42.678;23.364;2022-07-29T04:49:03;14.98;;;10.25;;
6133;SDS011;3098;42.678;23.364;2022-07-29T04:51:30;15.23;;;10.38;;
6133;SDS011;3098;42.678;23.364;2022-07-29T04:53:57;21.20;;;10.13;;
6133;SDS011;3098;42.678;23.364;2022-07-29T04:56:24;15.85;;;8.90;;
6133;SDS011;3098;42.678;23.364;2022-07-29T04:58:53;19.05;;;11.13;;
6133;SDS011;3098;42.678;23.364;2022-07-29T05:01:20;17.58;;;10.27;;
6133;SDS011;3098;42.678;23.364;2022-07-29T05:03:46;17.63;;;11.15;;
6133;SDS011;3098;42.678;23.364;2022-07-29T05:06:14;14.43;;;9.57;;
6133;SDS011;3098;42.678;23.364;2022-07-29T05:08:41;14.02;;;9.52;;
6133;SDS011;3098;42.678;23.364;2022-07-29T05:11:08;15.90;;;9.20;;
6133;SDS011;3098;42.678;23.364;2022-07-29T05:13:35;13.80;;;8.57;;
6133;SDS011;3098;42.678;23.364;2022-07-29T05:16:04;14.13;;;7.68;;
6133;SDS011;3098;42.678;23.364;2022-07-29T05:18:31;13.52;;;8.40;;
6133;SDS011;3098;42.678;23.364;2022-07-29T05:20:58;14.85;;;9.05;;
6133;SDS011;3098;42.678;23.364;2022-07-29T05:23:25;12.68;;;8.10;;
6133;SDS011;3098;42.678;23.364;2022-07-29T05:25:52;11.55;;;7.57;;
6133;SDS011;3098;42.678;23.364;2022-07-29T05:28:21;15.95;;;8.50;;
6133;SDS011;3098;42.678;23.364;2022-07-29T05:30:47;12.52;;;8.02;;
6133;SDS011;3098;42.678;23.364;2022-07-29T05:33:16;14.00;;;6.82;;
6133;SDS011;3098;42.678;23.364;2022-07-29T05:35:43;9.57;;;7.32;;
6133;SDS011;3098;42.678;23.364;2022-07-29T05:38:10;9.93;;;7.00;;
6133;SDS011;3098;42.678;23.364;2022-07-29T05:40:37;10.60;;;6.82;;
6133;SDS011;3098;42.678;23.364;2022-07-29T05:43:05;11.77;;;6.78;;
6133;SDS011;3098;42.678;23.364;2022-07-29T05:45:33;5.95;;;5.30;;
6133;SDS011;3098;42.678;23.364;2022-07-29T05:48:00;8.32;;;5.85;;
6133;SDS011;3098;42.678;23.364;2022-07-29T05:50:29;17.83;;;6.93;;
6133;SDS011;3098;42.678;23.364;2022-07-29T05:52:56;10.05;;;6.10;;
6133;SDS011;3098;42.678;23.364;2022-07-29T05:55:24;8.95;;;6.22;;
6133;SDS011;3098;42.678;23.364;2022-07-29T05:57:51;13.45;;;7.30;;
6133;SDS011;3098;42.678;23.364;2022-07-29T06:00:18;10.10;;;6.85;;
6133;SDS011;3098;42.678;23.364;2022-07-29T06:02:45;13.75;;;6.68;;
6133;SDS011;3098;42.678;23.364;2022-07-29T06:05:12;8.18;;;5.85;;
6133;SDS011;3098;42.678;23.364;2022-07-29T06:07:41;13.35;;;6.10;;
6133;SDS011;3098;42.678;23.364;2022-07-29T06:10:09;10.88;;;6.10;;
6133;SDS011;3098;42.678;23.364;2022-07-29T06:12:36;9.73;;;7.07;;
6133;SDS011;3098;42.678;23.364;2022-07-29T06:15:03;15.32;;;6.75;;
6133;SDS011;3098;42.678;23.364;2022-07-29T06:17:31;9.20;;;6.32;;
6133;SDS011;3098;42.678;23.364;2022-07-29T06:19:58;8.73;;;6.28;;
6133;SDS011;3098;42.678;23.364;2022-07-29T06:22:25;9.52;;;6.53;;
6133;SDS011;3098;42.678;23.364;2022-07-29T06:24:54;12.13;;;6.03;;
6133;SDS011;3098;42.678;23.364;2022-07-29T06:27:21;11.52;;;7.05;;
6133;SDS011;3098;42.678;23.364;2022-07-29T06:29:48;7.82;;;5.72;;
6133;SDS011;3098;42.678;23.364;2022-07-29T06:32:15;12.15;;;5.93;;
6133;SDS011;3098;42.678;23.364;2022-07-29T06:34:44;8.88;;;5.60;;
6133;SDS011;3098;42.678;23.364;2022-07-29T06:37:11;10.70;;;5.85;;
6133;SDS011;3098;42.678;23.364;2022-07-29T06:39:38;8.50;;;5.63;;
6133;SDS011;3098;42.678;23.364;2022-07-29T06:42:07;8.32;;;5.85;;
6133;SDS011;3098;42.678;23.364;2022-07-29T06:44:34;14.30;;;5.85;;
6133;SDS011;3098;42.678;23.364;2022-07-29T06:47:03;7.95;;;6.10;;
6133;SDS011;3098;42.678;23.364;2022-07-29T06:49:32;6.95;;;5.40;;
6133;SDS011;3098;42.678;23.364;2022-07-29T06:51:59;10.73;;;5.55;;
6133;SDS011;3098;42.678;23.364;2022-07-29T06:54:27;11.07;;;5.45;;
6133;SDS011;3098;42.678;23.364;2022-07-29T06:56:54;9.00;;;5.70;;
6133;SDS011;3098;42.678;23.364;2022-07-29T06:59:23;7.50;;;5.78;;
6133;SDS011;3098;42.678;23.364;2022-07-29T07:01:50;8.60;;;5.88;;
6133;SDS011;3098;42.678;23.364;2022-07-29T07:04:17;9.98;;;5.70;;
6133;SDS011;3098;42.678;23.364;2022-07-29T07:06:44;7.63;;;5.13;;
6133;SDS011;3098;42.678;23.364;2022-07-29T07:09:11;9.95;;;4.88;;
6133;SDS011;3098;42.678;23.364;2022-07-29T07:11:39;6.88;;;5.35;;
6133;SDS011;3098;42.678;23.364;2022-07-29T07:14:06;9.95;;;5.80;;
6133;SDS011;3098;42.678;23.364;2022-07-29T07:16:35;6.25;;;4.47;;
6133;SDS011;3098;42.678;23.364;2022-07-29T07:19:01;5.78;;;4.43;;
6133;SDS011;3098;42.678;23.364;2022-07-29T07:21:29;5.13;;;4.55;;
6133;SDS011;3098;42.678;23.364;2022-07-29T07:23:56;8.63;;;4.55;;
6133;SDS011;3098;42.678;23.364;2022-07-29T07:26:24;6.18;;;4.28;;
6133;SDS011;3098;42.678;23.364;2022-07-29T07:28:52;7.35;;;4.68;;
6133;SDS011;3098;42.678;23.364;2022-07-29T07:31:19;6.25;;;5.07;;
6133;SDS011;3098;42.678;23.364;2022-07-29T07:33:49;6.32;;;4.60;;
6133;SDS011;3098;42.678;23.364;2022-07-29T07:36:17;8.57;;;4.40;;
6133;SDS011;3098;42.678;23.364;2022-07-29T07:38:44;6.68;;;4.65;;
6133;SDS011;3098;42.678;23.364;2022-07-29T07:41:12;8.15;;;4.97;;
6133;SDS011;3098;42.678;23.364;2022-07-29T07:43:39;6.78;;;5.13;;
6133;SDS011;3098;42.678;23.364;2022-07-29T07:46:06;9.07;;;4.90;;
6133;SDS011;3098;42.678;23.364;2022-07-29T07:48:33;7.85;;;4.68;;
6133;SDS011;3098;42.678;23.364;2022-07-29T07:51:02;6.55;;;4.93;;
6133;SDS011;3098;42.678;23.364;2022-07-29T07:53:29;5.65;;;4.53;;
6133;SDS011;3098;42.678;23.364;2022-07-29T07:55:57;7.18;;;4.85;;
6133;SDS011;3098;42.678;23.364;2022-07-29T07:58:24;8.75;;;4.60;;
6133;SDS011;3098;42.678;23.364;2022-07-29T08:00:51;5.80;;;4.38;;
6133;SDS011;3098;42.678;23.364;2022-07-29T08:03:19;6.32;;;4.30;;
6133;SDS011;3098;42.678;23.364;2022-07-29T08:05:47;5.90;;;4.60;;
6133;SDS011;3098;42.678;23.364;2022-07-29T08:08:17;5.63;;;4.63;;
6133;SDS011;3098;42.678;23.364;2022-07-29T08:10:45;8.20;;;3.92;;
6133;SDS011;3098;42.678;23.364;2022-07-29T08:13:22;7.22;;;4.75;;
6133;SDS011;3098;42.678;23.364;2022-07-29T08:15:53;10.00;;;4.18;;
6133;SDS011;3098;42.678;23.364;2022-07-29T08:18:25;5.97;;;4.10;;
6133;SDS011;3098;42.678;23.364;2022-07-29T08:20:53;4.95;;;4.10;;
6133;SDS011;3098;42.678;23.364;2022-07-29T08:23:22;4.72;;;4.22;;
6133;SDS011;3098;42.678;23.364;2022-07-29T08:25:52;7.97;;;4.30;;
6133;SDS011;3098;42.678;23.364;2022-07-29T08:28:19;4.38;;;3.60;;
6133;SDS011;3098;42.678;23.364;2022-07-29T08:30:46;7.57;;;4.45;;
6133;SDS011;3098;42.678;23.364;2022-07-29T08:33:13;6.80;;;3.90;;
6133;SDS011;3098;42.678;23.364;2022-07-29T08:35:41;7.85;;;4.20;;
6133;SDS011;3098;42.678;23.364;2022-07-29T08:38:08;5.65;;;3.42;;
6133;SDS011;3098;42.678;23.364;2022-07-29T08:40:37;8.30;;;3.97;;
6133;SDS011;3098;42.678;23.364;2022-07-29T08:43:06;4.35;;;3.88;;
6133;SDS011;3098;42.678;23.364;2022-07-29T08:45:41;4.00;;;3.53;;
6133;SDS011;3098;42.678;23.364;2022-07-29T08:48:11;9.45;;;3.85;;
6133;SDS011;3098;42.678;23.364;2022-07-29T08:50:38;6.78;;;3.72;;
6133;SDS011;3098;42.678;23.364;2022-07-29T08:53:06;6.55;;;3.60;;
6133;SDS011;3098;42.678;23.364;2022-07-29T08:55:34;4.15;;;3.55;;
6133;SDS011;3098;42.678;23.364;2022-07-29T08:58:03;5.30;;;4.05;;
6133;SDS011;3098;42.678;23.364;2022-07-29T09:00:31;4.90;;;3.92;;
6133;SDS011;3098;42.678;23.364;2022-07-29T09:03:00;4.00;;;3.60;;
6133;SDS011;3098;42.678;23.364;2022-07-29T09:05:28;5.00;;;3.22;;
6133;SDS011;3098;42.678;23.364;2022-07-29T09:07:55;4.40;;;3.50;;
6133;SDS011;3098;42.678;23.364;2022-07-29T09:10:23;4.75;;;3.70;;
6133;SDS011;3098;42.678;23.364;2022-07-29T09:12:50;7.97;;;4.15;;
6133;SDS011;3098;42.678;23.364;2022-07-29T09:15:18;3.90;;;3.50;;
6133;SDS011;3098;42.678;23.364;2022-07-29T09:17:46;7.75;;;3.50;;
6133;SDS011;3098;42.678;23.364;2022-07-29T09:20:15;6.85;;;3.95;;
6133;SDS011;3098;42.678;23.364;2022-07-29T09:22:43;4.50;;;4.10;;
6133;SDS011;3098;42.678;23.364;2022-07-29T09:25:14;5.15;;;4.05;;
6133;SDS011;3098;42.678;23.364;2022-07-29T09:27:41;9.20;;;4.07;;
6133;SDS011;3098;42.678;23.364;2022-07-29T09:30:17;7.57;;;4.25;;
6133;SDS011;3098;42.678;23.364;2022-07-29T09:32:56;6.22;;;4.78;;
6133;SDS011;3098;42.678;23.364;2022-07-29T09:35:27;6.18;;;4.25;;
6133;SDS011;3098;42.678;23.364;2022-07-29T09:37:55;5.18;;;3.90;;
6133;SDS011;3098;42.678;23.364;2022-07-29T09:40:24;7.32;;;3.95;;
6133;SDS011;3098;42.678;23.364;2022-07-29T09:42:52;6.63;;;3.90;;
6133;SDS011;3098;42.678;23.364;2022-07-29T09:45:30;4.65;;;4.18;;
6133;SDS011;3098;42.678;23.364;2022-07-29T09:47:58;5.75;;;3.80;;
6133;SDS011;3098;42.678;23.364;2022-07-29T09:50:35;4.40;;;3.53;;
6133;SDS011;3098;42.678;23.364;2022-07-29T09:53:03;5.55;;;3.70;;
6133;SDS011;3098;42.678;23.364;2022-07-29T09:55:30;5.30;;;3.42;;
6133;SDS011;3098;42.678;23.364;2022-07-29T10:00:44;4.68;;;4.10;;
6133;SDS011;3098;42.678;23.364;2022-07-29T10:03:12;7.88;;;4.00;;
6133;SDS011;3098;42.678;23.364;2022-07-29T10:05:40;8.95;;;4.13;;
6133;SDS011;3098;42.678;23.364;2022-07-29T10:08:08;7.85;;;3.67;;
6133;SDS011;3098;42.678;23.364;2022-07-29T10:10:38;8.60;;;4.40;;
6133;SDS011;3098;42.678;23.364;2022-07-29T10:13:07;8.10;;;4.05;;
6133;SDS011;3098;42.678;23.364;2022-07-29T10:15:42;6.47;;;3.92;;
6133;SDS011;3098;42.678;23.364;2022-07-29T10:18:12;5.03;;;4.45;;
6133;SDS011;3098;42.678;23.364;2022-07-29T10:20:42;4.50;;;3.50;;
6133;SDS011;3098;42.678;23.364;2022-07-29T10:23:09;4.40;;;3.28;;
6133;SDS011;3098;42.678;23.364;2022-07-29T10:25:36;8.10;;;3.40;;
6133;SDS011;3098;42.678;23.364;2022-07-29T10:28:04;4.13;;;3.20;;
6133;SDS011;3098;42.678;23.364;2022-07-29T10:30:32;5.28;;;3.65;;
6133;SDS011;3098;42.678;23.364;2022-07-29T10:33:21;4.38;;;3.50;;
6133;SDS011;3098;42.678;23.364;2022-07-29T10:36:19;4.65;;;3.38;;
6133;SDS011;3098;42.678;23.364;2022-07-29T10:38:55;8.32;;;3.63;;
6133;SDS011;3098;42.678;23.364;2022-07-29T10:44:39;4.20;;;3.25;;
6133;SDS011;3098;42.678;23.364;2022-07-29T10:47:08;6.00;;;3.60;;
6133;SDS011;3098;42.678;23.364;2022-07-29T10:49:56;4.88;;;3.63;;
6133;SDS011;3098;42.678;23.364;2022-07-29T10:52:24;7.65;;;3.55;;
6133;SDS011;3098;42.678;23.364;2022-07-29T10:58:10;6.72;;;3.85;;
6133;SDS011;3098;42.678;23.364;2022-07-29T11:00:41;5.20;;;3.72;;
6133;SDS011;3098;42.678;23.364;2022-07-29T11:03:08;5.45;;;3.40;;
6133;SDS011;3098;42.678;23.364;2022-07-29T11:08:24;5.57;;;4.32;;
6133;SDS011;3098;42.678;23.364;2022-07-29T11:10:52;4.25;;;3.70;;
6133;SDS011;3098;42.678;23.364;2022-07-29T11:13:48;4.28;;;3.72;;
6133;SDS011;3098;42.678;23.364;2022-07-29T11:16:17;7.15;;;4.18;;
6133;SDS011;3098;42.678;23.364;2022-07-29T11:21:46;5.35;;;4.07;;
6133;SDS011;3098;42.678;23.364;2022-07-29T11:24:16;5.43;;;4.10;;
6133;SDS011;3098;42.678;23.364;2022-07-29T11:26:46;10.75;;;4.43;;
6133;SDS011;3098;42.678;23.364;2022-07-29T11:29:32;6.75;;;4.40;;
6133;SDS011;3098;42.678;23.364;2022-07-29T11:32:08;6.05;;;4.68;;
6133;SDS011;3098;42.678;23.364;2022-07-29T11:34:36;7.45;;;4.38;;
6133;SDS011;3098;42.678;23.364;2022-07-29T11:37:22;5.80;;;4.47;;
6133;SDS011;3098;42.678;23.364;2022-07-29T11:40:11;5.40;;;4.50;;
6133;SDS011;3098;42.678;23.364;2022-07-29T11:42:48;7.93;;;4.28;;
6133;SDS011;3098;42.678;23.364;2022-07-29T11:45:25;5.68;;;4.20;;
6133;SDS011;3098;42.678;23.364;2022-07-29T11:48:44;9.10;;;4.30;;
6133;SDS011;3098;42.678;23.364;2022-07-29T11:51:18;5.00;;;4.50;;
6133;SDS011;3098;42.678;23.364;2022-07-29T11:53:56;8.52;;;4.82;;
6133;SDS011;3098;42.678;23.364;2022-07-29T11:56:30;8.65;;;4.90;;
6133;SDS011;3098;42.678;23.364;2022-07-29T11:59:11;7.32;;;4.57;;
6133;SDS011;3098;42.678;23.364;2022-07-29T12:01:51;5.78;;;4.68;;
6133;SDS011;3098;42.678;23.364;2022-07-29T12:04:18;5.63;;;4.50;;
6133;SDS011;3098;42.678;23.364;2022-07-29T12:06:48;6.40;;;4.90;;
6133;SDS011;3098;42.678;23.364;2022-07-29T12:09:18;6.10;;;4.63;;
6133;SDS011;3098;42.678;23.364;2022-07-29T12:11:46;5.60;;;5.03;;
6133;SDS011;3098;42.678;23.364;2022-07-29T12:14:25;9.27;;;4.68;;
6133;SDS011;3098;42.678;23.364;2022-07-29T12:16:52;5.97;;;4.60;;
6133;SDS011;3098;42.678;23.364;2022-07-29T12:19:19;5.95;;;5.35;;
6133;SDS011;3098;42.678;23.364;2022-07-29T12:21:47;6.35;;;4.80;;
6133;SDS011;3098;42.678;23.364;2022-07-29T12:24:15;5.75;;;5.07;;
6133;SDS011;3098;42.678;23.364;2022-07-29T12:26:51;7.90;;;5.18;;
6133;SDS011;3098;42.678;23.364;2022-07-29T12:29:18;6.20;;;4.93;;
6133;SDS011;3098;42.678;23.364;2022-07-29T12:31:46;6.80;;;4.75;;
6133;SDS011;3098;42.678;23.364;2022-07-29T12:34:19;6.18;;;4.93;;
6133;SDS011;3098;42.678;23.364;2022-07-29T12:36:48;9.77;;;5.40;;
6133;SDS011;3098;42.678;23.364;2022-07-29T12:39:16;8.93;;;6.50;;
6133;SDS011;3098;42.678;23.364;2022-07-29T12:41:44;7.65;;;5.63;;
6133;SDS011;3098;42.678;23.364;2022-07-29T12:44:12;7.25;;;5.70;;
6133;SDS011;3098;42.678;23.364;2022-07-29T12:46:39;9.02;;;5.80;;
6133;SDS011;3098;42.678;23.364;2022-07-29T12:49:06;5.93;;;5.15;;
6133;SDS011;3098;42.678;23.364;2022-07-29T12:51:34;6.80;;;5.47;;
6133;SDS011;3098;42.678;23.364;2022-07-29T12:54:03;6.97;;;5.25;;
6133;SDS011;3098;42.678;23.364;2022-07-29T12:56:33;6.70;;;5.40;;
6133;SDS011;3098;42.678;23.364;2022-07-29T12:59:00;6.40;;;5.05;;
6133;SDS011;3098;42.678;23.364;2022-07-29T13:01:40;10.23;;;5.63;;
6133;SDS011;3098;42.678;23.364;2022-07-29T13:04:07;7.38;;;5.63;;
6133;SDS011;3098;42.678;23.364;2022-07-29T13:06:38;11.02;;;5.72;;
6133;SDS011;3098;42.678;23.364;2022-07-29T13:09:07;6.93;;;6.07;;
6133;SDS011;3098;42.678;23.364;2022-07-29T13:11:37;6.60;;;5.63;;
6133;SDS011;3098;42.678;23.364;2022-07-29T13:14:06;8.25;;;5.70;;
6133;SDS011;3098;42.678;23.364;2022-07-29T13:16:37;5.78;;;5.13;;
6133;SDS011;3098;42.678;23.364;2022-07-29T13:19:32;8.55;;;5.07;;
6133;SDS011;3098;42.678;23.364;2022-07-29T13:22:00;9.55;;;5.75;;
6133;SDS011;3098;42.678;23.364;2022-07-29T13:24:27;8.70;;;5.53;;
6133;SDS011;3098;42.678;23.364;2022-07-29T13:26:54;6.32;;;5.35;;
6133;SDS011;3098;42.678;23.364;2022-07-29T13:29:21;5.35;;;4.85;;
6133;SDS011;3098;42.678;23.364;2022-07-29T13:31:50;7.50;;;5.07;;
6133;SDS011;3098;42.678;23.364;2022-07-29T13:34:17;7.55;;;4.97;;
6133;SDS011;3098;42.678;23.364;2022-07-29T13:36:48;7.25;;;5.40;;
6133;SDS011;3098;42.678;23.364;2022-07-29T13:39:18;8.55;;;4.85;;
6133;SDS011;3098;42.678;23.364;2022-07-29T13:41:45;6.25;;;5.43;;
6133;SDS011;3098;42.678;23.364;2022-07-29T13:44:12;6.53;;;5.05;;
6133;SDS011;3098;42.678;23.364;2022-07-29T13:46:39;6.78;;;5.22;;
6133;SDS011;3098;42.678;23.364;2022-07-29T13:49:09;7.53;;;5.05;;
6133;SDS011;3098;42.678;23.364;2022-07-29T13:51:36;8.80;;;4.93;;
6133;SDS011;3098;42.678;23.364;2022-07-29T13:54:04;5.70;;;5.00;;
6133;SDS011;3098;42.678;23.364;2022-07-29T13:56:34;5.43;;;4.93;;
6133;SDS011;3098;42.678;23.364;2022-07-29T13:59:01;7.57;;;5.40;;
6133;SDS011;3098;42.678;23.364;2022-07-29T14:01:28;6.28;;;5.28;;
6133;SDS011;3098;42.678;23.364;2022-07-29T14:03:55;6.13;;;5.30;;
6133;SDS011;3098;42.678;23.364;2022-07-29T14:06:24;8.18;;;5.40;;
6133;SDS011;3098;42.678;23.364;2022-07-29T14:08:51;6.68;;;5.57;;
6133;SDS011;3098;42.678;23.364;2022-07-29T14:11:18;8.77;;;5.90;;
6133;SDS011;3098;42.678;23.364;2022-07-29T14:13:46;7.53;;;5.43;;
6133;SDS011;3098;42.678;23.364;2022-07-29T14:16:14;6.63;;;5.80;;
6133;SDS011;3098;42.678;23.364;2022-07-29T14:18:41;6.15;;;5.35;;
6133;SDS011;3098;42.678;23.364;2022-07-29T14:21:08;8.25;;;5.80;;
6133;SDS011;3098;42.678;23.364;2022-07-29T14:23:37;8.70;;;5.65;;
6133;SDS011;3098;42.678;23.364;2022-07-29T14:26:05;7.38;;;5.32;;
6133;SDS011;3098;42.678;23.364;2022-07-29T14:28:32;6.28;;;5.47;;
6133;SDS011;3098;42.678;23.364;2022-07-29T14:30:59;5.82;;;4.82;;
6133;SDS011;3098;42.678;23.364;2022-07-29T14:33:26;7.07;;;5.78;;
6133;SDS011;3098;42.678;23.364;2022-07-29T14:35:53;9.27;;;5.47;;
6133;SDS011;3098;42.678;23.364;2022-07-29T14:38:20;6.60;;;5.50;;
6133;SDS011;3098;42.678;23.364;2022-07-29T14:40:48;8.10;;;5.22;;
6133;SDS011;3098;42.678;23.364;2022-07-29T14:43:16;7.65;;;5.65;;
6133;SDS011;3098;42.678;23.364;2022-07-29T14:45:42;6.05;;;5.22;;
6133;SDS011;3098;42.678;23.364;2022-07-29T14:48:10;8.43;;;5.32;;
6133;SDS011;3098;42.678;23.364;2022-07-29T14:50:37;6.45;;;5.45;;
6133;SDS011;3098;42.678;23.364;2022-07-29T14:53:04;10.93;;;5.90;;
6133;SDS011;3098;42.678;23.364;2022-07-29T14:55:31;8.30;;;5.97;;
6133;SDS011;3098;42.678;23.364;2022-07-29T14:58:00;7.40;;;5.45;;
6133;SDS011;3098;42.678;23.364;2022-07-29T15:00:27;7.85;;;5.50;;
6133;SDS011;3098;42.678;23.364;2022-07-29T15:02:57;6.40;;;5.18;;
6133;SDS011;3098;42.678;23.364;2022-07-29T15:05:24;7.07;;;5.80;;
6133;SDS011;3098;42.678;23.364;2022-07-29T15:07:51;6.25;;;5.65;;
6133;SDS011;3098;42.678;23.364;2022-07-29T15:10:19;7.07;;;5.95;;
6133;SDS011;3098;42.678;23.364;2022-07-29T15:12:46;7.55;;;6.03;;
6133;SDS011;3098;42.678;23.364;2022-07-29T15:15:14;8.80;;;5.63;;
6133;SDS011;3098;42.678;23.364;2022-07-29T15:17:42;8.65;;;6.32;;
6133;SDS011;3098;42.678;23.364;2022-07-29T15:20:09;6.25;;;5.60;;
6133;SDS011;3098;42.678;23.364;2022-07-29T15:22:36;9.13;;;5.65;;
6133;SDS011;3098;42.678;23.364;2022-07-29T15:25:05;9.05;;;5.75;;